Terminal Aerodrome Forecast
Issued by NWS

Home | Current Version | Previous Version | Text Only | Print | Product List | Glossary On
Versions: 1 2 3 4 5 6 7 8 9 10 11 12 13 14 15 16 17 18 19 20 21
000
FTUS46 KPQR 261003 AAB
TAFONP
TAF AMD
KONP 261003Z 2610/2706 34005KT P6SM OVC035
     FM261100 36005KT P6SM SCT015 OVC028
     FM261300 VRB04KT 5SM -RADZ BR SCT007 OVC015
     FM261900 34009KT P6SM VCSH BKN025 BKN040=

USA.gov is the U.S. government's official web portal to all federal, state and local government web resources and services.